createdAt,value
2022-08-02T00:00:47.397Z,995.89
2022-08-02T00:01:46.416Z,995.87
2022-08-02T00:02:46.349Z,995.89
2022-08-02T00:03:46.320Z,995.86
2022-08-02T00:04:46.328Z,995.82
2022-08-02T00:05:53.502Z,995.81
2022-08-02T00:06:47.313Z,995.84
2022-08-02T00:07:46.348Z,995.84
2022-08-02T00:08:46.285Z,995.86
2022-08-02T00:09:46.277Z,995.82
2022-08-02T00:10:46.265Z,995.82
2022-08-02T00:11:46.297Z,995.74
2022-08-02T00:12:46.298Z,995.84
2022-08-02T00:13:46.280Z,995.82
2022-08-02T00:14:46.286Z,995.75
2022-08-02T00:15:46.270Z,995.77
2022-08-02T00:16:46.244Z,995.77
2022-08-02T00:17:46.369Z,995.78
2022-08-02T00:18:46.221Z,995.77
2022-08-02T00:19:46.224Z,995.73
2022-08-02T00:20:46.205Z,995.75
2022-08-02T00:21:46.241Z,995.68
2022-08-02T00:22:46.186Z,995.67
2022-08-02T00:24:27.612Z,995.67
2022-08-02T00:24:47.216Z,995.70
2022-08-02T00:25:54.457Z,995.76
2022-08-02T00:26:47.169Z,995.71
2022-08-02T00:27:46.157Z,995.72
2022-08-02T00:28:46.152Z,995.74
2022-08-02T00:29:52.568Z,995.67
2022-08-02T00:30:47.121Z,995.79
2022-08-02T00:31:46.125Z,995.75
2022-08-02T00:32:46.108Z,995.77
2022-08-02T00:34:05.257Z,995.75
2022-08-02T00:34:47.129Z,995.76
2022-08-02T00:35:46.085Z,995.78
2022-08-02T00:36:46.060Z,995.80
2022-08-02T00:37:47.129Z,995.79
2022-08-02T00:38:46.069Z,995.80
2022-08-02T00:39:46.085Z,995.79
2022-08-02T00:40:46.052Z,995.77
2022-08-02T00:41:46.041Z,995.80
2022-08-02T00:42:46.100Z,995.78
2022-08-02T00:43:46.075Z,995.79
2022-08-02T00:44:46.029Z,995.83
2022-08-02T00:46:02.339Z,995.77
2022-08-02T00:46:47.004Z,995.87
2022-08-02T00:47:46.029Z,995.81
2022-08-02T00:48:46.022Z,995.85
2022-08-02T00:49:46.001Z,995.82
2022-08-02T00:50:46.012Z,995.81
2022-08-02T00:51:45.972Z,995.77
2022-08-02T00:52:46.960Z,995.80
2022-08-02T00:53:45.987Z,995.81
2022-08-02T00:54:45.949Z,995.86
2022-08-02T00:55:46.006Z,995.88
2022-08-02T00:56:49.787Z,995.85
2022-08-02T00:57:46.930Z,995.89
2022-08-02T00:58:45.931Z,995.83
2022-08-02T00:59:45.917Z,995.88
2022-08-02T01:00:45.904Z,995.89
2022-08-02T01:01:56.176Z,995.90
2022-08-02T01:02:46.894Z,995.94
2022-08-02T01:03:45.894Z,995.96
2022-08-02T01:04:45.876Z,995.98
2022-08-02T01:06:10.096Z,995.95
2022-08-02T01:06:47.901Z,995.99
2022-08-02T01:07:45.873Z,995.99
2022-08-02T01:08:45.845Z,995.99
2022-08-02T01:09:45.851Z,995.99
2022-08-02T01:10:45.821Z,995.97
2022-08-02T01:11:45.864Z,995.99
2022-08-02T01:12:45.828Z,995.96
2022-08-02T01:13:46.856Z,995.96
2022-08-02T01:14:46.718Z,995.99
2022-08-02T01:15:45.820Z,995.97
2022-08-02T01:16:45.835Z,995.98
2022-08-02T01:17:45.799Z,996.05
2022-08-02T01:18:45.800Z,995.94
2022-08-02T01:19:45.761Z,996.05
2022-08-02T01:20:45.763Z,996.04
2022-08-02T01:21:45.799Z,996.02
2022-08-02T01:23:00.961Z,996.04
2022-08-02T01:23:47.736Z,996.00
2022-08-02T01:24:45.733Z,996.01
2022-08-02T01:25:45.716Z,995.97
2022-08-02T01:26:45.723Z,995.94
2022-08-02T01:27:45.727Z,995.90
2022-08-02T01:28:45.700Z,995.94
2022-08-02T01:29:45.701Z,995.84
2022-08-02T01:30:45.683Z,995.85
2022-08-02T01:31:45.707Z,995.88
2022-08-02T01:32:45.666Z,995.84
2022-08-02T01:33:45.719Z,995.85
2022-08-02T01:34:45.704Z,995.86
2022-08-02T01:35:51.030Z,995.95
2022-08-02T01:36:46.689Z,995.86
2022-08-02T01:37:45.667Z,995.90
2022-08-02T01:38:45.651Z,995.90
2022-08-02T01:39:45.647Z,995.93
2022-08-02T01:40:45.643Z,995.90
2022-08-02T01:41:45.627Z,995.88
2022-08-02T01:42:45.640Z,995.87
2022-08-02T01:43:45.580Z,995.86
2022-08-02T01:44:46.584Z,995.85
2022-08-02T01:45:45.600Z,995.82
2022-08-02T01:46:45.620Z,995.82
2022-08-02T01:47:45.580Z,995.85
2022-08-02T01:48:45.576Z,995.88
2022-08-02T01:49:45.565Z,995.87
2022-08-02T01:50:45.539Z,995.92
2022-08-02T01:51:45.556Z,995.87
2022-08-02T01:52:53.049Z,995.97
2022-08-02T01:53:46.536Z,995.91
2022-08-02T01:54:45.554Z,995.93
2022-08-02T01:55:56.940Z,995.90
2022-08-02T01:56:46.546Z,995.92
2022-08-02T01:57:45.552Z,995.94
2022-08-02T01:58:45.538Z,995.92
2022-08-02T01:59:45.541Z,995.94
2022-08-02T02:00:45.491Z,995.95
2022-08-02T02:01:45.594Z,995.92
2022-08-02T02:02:45.483Z,995.91
2022-08-02T02:03:45.495Z,995.87
2022-08-02T02:04:45.472Z,995.87
2022-08-02T02:05:45.468Z,995.90
2022-08-02T02:06:45.469Z,995.92
2022-08-02T02:07:45.455Z,995.85
2022-08-02T02:08:45.471Z,995.88
2022-08-02T02:09:47.907Z,995.89
2022-08-02T02:10:46.455Z,995.85
2022-08-02T02:12:06.392Z,995.99
2022-08-02T02:12:46.395Z,995.95
2022-08-02T02:13:45.418Z,995.93
2022-08-02T02:14:49.306Z,996.01
2022-08-02T02:15:46.375Z,995.97
2022-08-02T02:16:45.375Z,995.96
2022-08-02T02:18:10.497Z,995.88
2022-08-02T02:18:46.386Z,995.97
2022-08-02T02:19:45.343Z,995.99
2022-08-02T02:20:45.363Z,996.03
2022-08-02T02:21:45.326Z,995.99
2022-08-02T02:22:45.361Z,996.02
2022-08-02T02:23:45.339Z,996.00
2022-08-02T02:24:45.316Z,995.97
2022-08-02T02:25:46.639Z,996.00
2022-08-02T02:26:51.940Z,995.96
2022-08-02T02:27:45.286Z,996.01
2022-08-02T02:28:45.334Z,995.96
2022-08-02T02:29:45.323Z,995.94
2022-08-02T02:30:45.272Z,995.94
2022-08-02T02:31:45.263Z,995.93
2022-08-02T02:32:45.268Z,995.93
2022-08-02T02:33:45.288Z,995.90
2022-08-02T02:34:46.247Z,995.94
2022-08-02T02:35:45.232Z,995.97
2022-08-02T02:36:45.239Z,995.92
2022-08-02T02:37:45.255Z,995.95
2022-08-02T02:38:45.239Z,995.98
2022-08-02T02:39:45.262Z,996.00
2022-08-02T02:40:45.247Z,995.96
2022-08-02T02:41:45.190Z,996.00
2022-08-02T02:42:49.331Z,996.00
2022-08-02T02:43:45.219Z,996.00
2022-08-02T02:44:45.206Z,996.08
2022-08-02T02:45:45.171Z,996.02
2022-08-02T02:46:45.202Z,995.98
2022-08-02T02:47:45.153Z,996.01
2022-08-02T02:48:45.147Z,996.08
2022-08-02T02:49:45.166Z,996.02
2022-08-02T02:50:45.142Z,996.07
2022-08-02T02:51:45.129Z,996.05
2022-08-02T02:52:45.145Z,996.10
2022-08-02T02:54:30.225Z,996.07
2022-08-02T02:54:46.170Z,996.12
2022-08-02T02:56:01.725Z,996.06
2022-08-02T02:56:46.098Z,996.03
2022-08-02T02:57:45.083Z,996.09
2022-08-02T02:58:45.134Z,996.04
2022-08-02T02:59:49.173Z,996.05
2022-08-02T03:00:45.116Z,996.07
2022-08-02T03:01:56.852Z,996.04
2022-08-02T03:02:46.086Z,996.07
2022-08-02T03:03:45.074Z,996.07
2022-08-02T03:04:56.059Z,996.04
2022-08-02T03:05:46.078Z,996.02
2022-08-02T03:06:45.026Z,996.05
2022-08-02T03:07:45.022Z,996.02
2022-08-02T03:08:45.011Z,996.07
2022-08-02T03:09:45.023Z,996.02
2022-08-02T03:10:45.006Z,996.04
2022-08-02T03:11:44.998Z,995.97
2022-08-02T03:12:45.011Z,995.98
2022-08-02T03:13:44.984Z,995.94
2022-08-02T03:14:44.974Z,995.93
2022-08-02T03:15:44.973Z,995.91
2022-08-02T03:16:44.963Z,996.01
2022-08-02T03:17:44.951Z,995.98
2022-08-02T03:18:44.958Z,995.95
2022-08-02T03:19:44.934Z,995.92
2022-08-02T03:20:44.956Z,995.93
2022-08-02T03:21:44.933Z,995.89
2022-08-02T03:22:44.936Z,995.92
2022-08-02T03:23:44.943Z,995.89
2022-08-02T03:24:44.904Z,995.92
2022-08-02T03:25:44.930Z,995.87
2022-08-02T03:26:44.907Z,995.90
2022-08-02T03:27:44.891Z,995.86
2022-08-02T03:28:44.885Z,995.94
2022-08-02T03:29:44.870Z,995.89
2022-08-02T03:30:44.914Z,995.96
2022-08-02T03:31:44.906Z,995.95
2022-08-02T03:32:44.867Z,995.96
2022-08-02T03:33:44.890Z,995.93
2022-08-02T03:34:44.847Z,995.90
2022-08-02T03:35:44.843Z,995.87
2022-08-02T03:36:44.847Z,995.84
2022-08-02T03:37:44.831Z,995.86
2022-08-02T03:38:44.824Z,995.93
2022-08-02T03:39:52.839Z,995.76
2022-08-02T03:40:45.849Z,995.85
2022-08-02T03:41:44.830Z,995.86
2022-08-02T03:42:44.818Z,995.83
2022-08-02T03:43:44.823Z,995.80
2022-08-02T03:44:44.802Z,995.81
2022-08-02T03:45:44.814Z,995.75
2022-08-02T03:46:44.762Z,995.77
2022-08-02T03:47:44.792Z,995.80
2022-08-02T03:48:44.774Z,995.74
2022-08-02T03:49:44.761Z,995.79
2022-08-02T03:50:44.741Z,995.80
2022-08-02T03:51:44.766Z,995.86
2022-08-02T03:52:44.740Z,995.83
2022-08-02T03:53:44.738Z,995.86
2022-08-02T03:54:45.849Z,995.84
2022-08-02T03:55:44.751Z,995.88
2022-08-02T03:56:44.718Z,995.86
2022-08-02T03:57:44.702Z,995.85
2022-08-02T03:58:49.132Z,995.81
2022-08-02T03:59:45.694Z,995.77
2022-08-02T04:00:44.721Z,995.82
2022-08-02T04:01:44.670Z,995.75
2022-08-02T04:02:44.718Z,995.80
2022-08-02T04:03:44.694Z,995.74
2022-08-02T04:04:44.682Z,995.67
2022-08-02T04:06:03.434Z,995.68
2022-08-02T04:06:45.674Z,995.71
2022-08-02T04:08:32.527Z,995.73
2022-08-02T04:08:45.618Z,995.67
2022-08-02T04:09:44.623Z,995.64
2022-08-02T04:10:44.630Z,995.76
2022-08-02T04:11:44.630Z,995.69
2022-08-02T04:12:44.605Z,995.70
2022-08-02T04:13:44.619Z,995.73
2022-08-02T04:14:44.570Z,995.76
2022-08-02T04:15:44.594Z,995.78
2022-08-02T04:16:44.559Z,995.82
2022-08-02T04:17:44.627Z,995.84
2022-08-02T04:18:44.546Z,995.76
2022-08-02T04:19:44.554Z,995.80
2022-08-02T04:20:44.533Z,995.82
2022-08-02T04:21:51.819Z,995.88
2022-08-02T04:22:45.550Z,995.90
2022-08-02T04:23:44.566Z,995.81
2022-08-02T04:24:44.554Z,995.84
2022-08-02T04:25:44.534Z,995.87
2022-08-02T04:26:44.531Z,995.91
2022-08-02T04:27:50.642Z,995.90
2022-08-02T04:28:45.525Z,995.92
2022-08-02T04:29:46.980Z,995.95
2022-08-02T04:30:45.505Z,995.98
2022-08-02T04:31:44.465Z,996.04
2022-08-02T04:32:44.454Z,996.03
2022-08-02T04:33:44.454Z,996.07
2022-08-02T04:34:54.187Z,996.04
2022-08-02T04:35:46.443Z,996.14
2022-08-02T04:36:44.422Z,996.14
2022-08-02T04:38:05.649Z,996.14
2022-08-02T04:38:45.430Z,996.20
2022-08-02T04:39:44.411Z,996.22
2022-08-02T04:40:44.410Z,996.17
2022-08-02T04:41:44.526Z,996.18
2022-08-02T04:42:44.390Z,996.18
2022-08-02T04:43:44.390Z,996.22
2022-08-02T04:44:44.372Z,996.18
2022-08-02T04:45:44.385Z,996.13
2022-08-02T04:46:44.365Z,996.16
2022-08-02T04:48:01.817Z,996.21
2022-08-02T04:48:46.342Z,996.20
2022-08-02T04:49:44.347Z,996.11
2022-08-02T04:50:44.346Z,996.14
2022-08-02T04:51:44.322Z,996.12
2022-08-02T04:52:45.969Z,996.12
2022-08-02T04:53:45.311Z,996.14
2022-08-02T04:54:44.306Z,996.10
2022-08-02T04:55:44.310Z,996.11
2022-08-02T04:56:44.294Z,996.07
2022-08-02T04:57:52.490Z,996.10
2022-08-02T04:58:45.274Z,996.01
2022-08-02T04:59:44.265Z,996.08
2022-08-02T05:00:44.321Z,996.11
2022-08-02T05:01:44.250Z,996.11
2022-08-02T05:02:44.246Z,996.04
2022-08-02T05:03:44.225Z,996.04
2022-08-02T05:04:44.237Z,996.13
2022-08-02T05:05:44.214Z,996.12
2022-08-02T05:06:44.222Z,996.10
2022-08-02T05:07:44.211Z,996.10
2022-08-02T05:08:44.191Z,996.15
2022-08-02T05:09:44.181Z,996.08
2022-08-02T05:10:44.178Z,996.11
2022-08-02T05:11:44.197Z,996.11
2022-08-02T05:12:45.162Z,996.12
2022-08-02T05:13:58.846Z,996.15
2022-08-02T05:14:45.158Z,996.10
2022-08-02T05:15:44.142Z,996.11
2022-08-02T05:16:44.148Z,996.20
2022-08-02T05:17:47.714Z,996.14
2022-08-02T05:18:44.125Z,996.13
2022-08-02T05:19:44.110Z,996.14
2022-08-02T05:20:44.111Z,996.13
2022-08-02T05:21:44.093Z,996.16
2022-08-02T05:22:44.106Z,996.11
2022-08-02T05:23:44.095Z,996.20
2022-08-02T05:24:44.074Z,996.16
2022-08-02T05:25:44.061Z,996.15
2022-08-02T05:26:44.068Z,996.12
2022-08-02T05:27:44.065Z,996.15
2022-08-02T05:28:44.045Z,996.14
2022-08-02T05:29:53.882Z,996.18
2022-08-02T05:30:46.037Z,996.18
2022-08-02T05:31:44.026Z,996.17
2022-08-02T05:32:44.032Z,996.18
2022-08-02T05:33:44.001Z,996.20
2022-08-02T05:34:43.998Z,996.21
2022-08-02T05:35:44.009Z,996.20
2022-08-02T05:36:43.985Z,996.14
2022-08-02T05:37:43.990Z,996.19
2022-08-02T05:38:49.752Z,996.14
2022-08-02T05:39:55.968Z,996.17
2022-08-02T05:40:54.306Z,996.15
2022-08-02T05:41:43.953Z,996.20
2022-08-02T05:42:43.944Z,996.18
2022-08-02T05:43:43.946Z,996.29
2022-08-02T05:44:43.921Z,996.28
2022-08-02T05:45:43.929Z,996.32
2022-08-02T05:46:43.911Z,996.36
2022-08-02T05:47:43.940Z,996.32
2022-08-02T05:48:43.909Z,996.27
2022-08-02T05:49:43.903Z,996.36
2022-08-02T05:50:43.889Z,996.31
2022-08-02T05:51:43.868Z,996.37
2022-08-02T05:52:45.054Z,996.35
2022-08-02T05:53:43.873Z,996.38
2022-08-02T05:54:43.853Z,996.39
2022-08-02T05:55:43.860Z,996.39
2022-08-02T05:56:43.844Z,996.42
2022-08-02T05:57:43.935Z,996.43
2022-08-02T05:58:43.850Z,996.49
2022-08-02T05:59:43.828Z,996.49
2022-08-02T06:00:43.812Z,996.49
2022-08-02T06:01:43.877Z,996.48
2022-08-02T06:02:43.831Z,996.51
2022-08-02T06:03:43.798Z,996.48
2022-08-02T06:04:43.785Z,996.44
2022-08-02T06:05:43.784Z,996.51
2022-08-02T06:06:43.778Z,996.48
2022-08-02T06:07:43.777Z,996.41
2022-08-02T06:08:47.583Z,996.37
2022-08-02T06:09:44.748Z,996.42
2022-08-02T06:10:43.750Z,996.43
2022-08-02T06:12:01.658Z,996.46
2022-08-02T06:12:44.737Z,996.42
2022-08-02T06:13:43.750Z,996.43
2022-08-02T06:14:43.718Z,996.41
2022-08-02T06:15:52.724Z,996.36
2022-08-02T06:16:44.712Z,996.37
2022-08-02T06:17:45.600Z,996.34
2022-08-02T06:18:43.705Z,996.36
2022-08-02T06:19:51.988Z,996.40
2022-08-02T06:20:44.680Z,996.45
2022-08-02T06:22:34.075Z,996.42
2022-08-02T06:22:45.115Z,996.49
2022-08-02T06:23:57.683Z,996.38
2022-08-02T06:24:44.656Z,996.42
2022-08-02T06:25:50.290Z,996.40
2022-08-02T06:26:44.651Z,996.40
2022-08-02T06:27:43.629Z,996.40
2022-08-02T06:28:43.641Z,996.36
2022-08-02T06:29:43.625Z,996.33
2022-08-02T06:30:43.601Z,996.34
2022-08-02T06:31:45.207Z,996.34
2022-08-02T06:32:43.593Z,996.36
2022-08-02T06:33:43.605Z,996.40
2022-08-02T06:34:43.601Z,996.37
2022-08-02T06:35:43.580Z,996.41
2022-08-02T06:36:43.581Z,996.39
2022-08-02T06:37:43.574Z,996.35
2022-08-02T06:38:43.561Z,996.40
2022-08-02T06:39:44.568Z,996.32
2022-08-02T06:40:43.552Z,996.43
2022-08-02T06:41:43.547Z,996.42
2022-08-02T06:42:43.556Z,996.47
2022-08-02T06:43:43.591Z,996.42
2022-08-02T06:44:48.035Z,996.40
2022-08-02T06:45:45.524Z,996.42
2022-08-02T06:47:11.314Z,996.37
2022-08-02T06:47:44.515Z,996.37
2022-08-02T06:48:43.504Z,996.39
2022-08-02T06:49:52.301Z,996.32
2022-08-02T06:50:44.492Z,996.33
2022-08-02T06:51:43.488Z,996.23
2022-08-02T06:52:43.484Z,996.24
2022-08-02T06:53:43.465Z,996.33
2022-08-02T06:54:43.485Z,996.32
2022-08-02T06:55:44.349Z,996.31
2022-08-02T06:56:43.452Z,996.30
2022-08-02T06:57:43.444Z,996.25
2022-08-02T06:58:43.447Z,996.34
2022-08-02T06:59:43.454Z,996.25
2022-08-02T07:00:43.429Z,996.27
2022-08-02T07:01:43.519Z,996.24
2022-08-02T07:02:43.412Z,996.24
2022-08-02T07:03:43.408Z,996.28
2022-08-02T07:04:43.401Z,996.25
2022-08-02T07:05:43.418Z,996.19
2022-08-02T07:06:43.392Z,996.19
2022-08-02T07:07:43.377Z,996.20
2022-08-02T07:08:54.781Z,996.23
2022-08-02T07:10:00.312Z,996.20
2022-08-02T07:10:44.372Z,996.20
2022-08-02T07:11:43.349Z,996.23
2022-08-02T07:12:43.353Z,996.20
2022-08-02T07:13:43.348Z,996.24
2022-08-02T07:14:43.337Z,996.21
2022-08-02T07:15:49.131Z,996.20
2022-08-02T07:16:44.318Z,996.26
2022-08-02T07:17:43.320Z,996.22
2022-08-02T07:18:43.317Z,996.33
2022-08-02T07:19:43.296Z,996.26
2022-08-02T07:20:43.309Z,996.33
2022-08-02T07:21:57.280Z,996.34
2022-08-02T07:22:45.283Z,996.23
2022-08-02T07:23:43.277Z,996.21
2022-08-02T07:24:43.276Z,996.19
2022-08-02T07:26:03.438Z,996.13
2022-08-02T07:27:08.609Z,996.21
2022-08-02T07:27:45.252Z,996.14
2022-08-02T07:28:43.247Z,996.17
2022-08-02T07:29:46.841Z,996.10
2022-08-02T07:30:43.233Z,996.14
2022-08-02T07:31:43.239Z,996.04
2022-08-02T07:32:43.223Z,996.09
2022-08-02T07:33:46.766Z,996.03
2022-08-02T07:34:51.071Z,996.07
2022-08-02T07:35:43.199Z,996.08
2022-08-02T07:36:43.211Z,996.11
2022-08-02T07:37:54.699Z,996.16
2022-08-02T07:38:44.190Z,996.05
2022-08-02T07:39:44.453Z,995.99
2022-08-02T07:40:43.176Z,995.96
2022-08-02T07:41:43.168Z,995.95
2022-08-02T07:42:43.173Z,996.01
2022-08-02T07:43:43.154Z,995.95
2022-08-02T07:44:47.179Z,995.96
2022-08-02T07:45:54.262Z,995.90
2022-08-02T07:46:44.148Z,995.89
2022-08-02T07:47:43.130Z,995.84
2022-08-02T07:48:43.120Z,995.82
2022-08-02T07:49:43.107Z,995.80
2022-08-02T07:50:43.105Z,995.84
2022-08-02T07:51:43.116Z,995.85
2022-08-02T07:52:43.087Z,995.79
2022-08-02T07:53:51.465Z,995.77
2022-08-02T07:54:44.071Z,995.76
2022-08-02T07:55:43.064Z,995.77
2022-08-02T07:56:43.085Z,995.77
2022-08-02T07:57:46.435Z,995.66
2022-08-02T07:58:44.052Z,995.61
2022-08-02T07:59:43.048Z,995.63
2022-08-02T08:00:43.041Z,995.57
2022-08-02T08:01:43.704Z,995.53
2022-08-02T08:02:43.043Z,995.56
2022-08-02T08:03:43.016Z,995.50
2022-08-02T08:04:43.016Z,995.50
2022-08-02T08:05:43.004Z,995.53
2022-08-02T08:06:43.001Z,995.60
2022-08-02T08:07:43.008Z,995.55
2022-08-02T08:08:42.993Z,995.56
2022-08-02T08:09:42.986Z,995.49
2022-08-02T08:10:42.975Z,995.53
2022-08-02T08:11:42.960Z,995.52
2022-08-02T08:12:42.975Z,995.53
2022-08-02T08:13:42.955Z,995.51
2022-08-02T08:14:42.946Z,995.59
2022-08-02T08:15:51.595Z,995.60
2022-08-02T08:16:43.942Z,995.59
2022-08-02T08:17:42.944Z,995.59
2022-08-02T08:18:42.924Z,995.62
2022-08-02T08:19:51.640Z,995.66
2022-08-02T08:20:43.908Z,995.65
2022-08-02T08:21:42.912Z,995.65
2022-08-02T08:22:42.917Z,995.66
2022-08-02T08:23:42.897Z,995.71
2022-08-02T08:24:42.892Z,995.70
2022-08-02T08:25:42.892Z,995.70
2022-08-02T08:26:42.875Z,995.78
2022-08-02T08:27:42.872Z,995.76
2022-08-02T08:28:42.879Z,995.70
2022-08-02T08:29:42.870Z,995.69
2022-08-02T08:30:42.861Z,995.70
2022-08-02T08:31:42.832Z,995.70
2022-08-02T08:32:42.850Z,995.69
2022-08-02T08:33:42.854Z,995.74
2022-08-02T08:34:42.829Z,995.72
2022-08-02T08:35:42.845Z,995.69
2022-08-02T08:36:42.820Z,995.71
2022-08-02T08:37:42.817Z,995.75
2022-08-02T08:38:42.822Z,995.65
2022-08-02T08:39:56.545Z,995.70
2022-08-02T08:40:43.792Z,995.66
2022-08-02T08:41:42.788Z,995.62
2022-08-02T08:42:42.780Z,995.66
2022-08-02T08:43:42.784Z,995.65
2022-08-02T08:44:42.771Z,995.67
2022-08-02T08:45:42.764Z,995.66
2022-08-02T08:46:42.747Z,995.57
2022-08-02T08:47:42.753Z,995.61
2022-08-02T08:48:42.739Z,995.61
2022-08-02T08:49:52.610Z,995.58
2022-08-02T08:50:43.729Z,995.59
2022-08-02T08:51:42.717Z,995.57
2022-08-02T08:52:42.706Z,995.58
2022-08-02T08:53:42.726Z,995.58
2022-08-02T08:54:42.709Z,995.59
2022-08-02T08:55:42.695Z,995.51
2022-08-02T08:56:42.692Z,995.53
2022-08-02T08:57:42.685Z,995.51
2022-08-02T08:58:42.676Z,995.49
2022-08-02T08:59:42.695Z,995.54
2022-08-02T09:00:42.679Z,995.56
2022-08-02T09:01:49.777Z,995.47
2022-08-02T09:02:43.688Z,995.54
2022-08-02T09:03:42.645Z,995.48
2022-08-02T09:04:42.648Z,995.53
2022-08-02T09:05:43.623Z,995.55
2022-08-02T09:06:42.624Z,995.53
2022-08-02T09:07:42.625Z,995.46
2022-08-02T09:08:42.615Z,995.60
2022-08-02T09:09:42.628Z,995.59
2022-08-02T09:10:42.618Z,995.54
2022-08-02T09:11:42.591Z,995.54
2022-08-02T09:12:42.604Z,995.46
2022-08-02T09:13:46.062Z,995.45
2022-08-02T09:14:42.579Z,995.36
2022-08-02T09:15:42.591Z,995.46
2022-08-02T09:16:42.575Z,995.43
2022-08-02T09:17:42.558Z,995.41
2022-08-02T09:18:42.563Z,995.40
2022-08-02T09:19:46.134Z,995.40
2022-08-02T09:20:42.576Z,995.44
2022-08-02T09:21:42.553Z,995.45
2022-08-02T09:22:42.547Z,995.31
2022-08-02T09:23:42.536Z,995.38
2022-08-02T09:24:42.558Z,995.36
2022-08-02T09:25:42.535Z,995.31
2022-08-02T09:26:43.511Z,995.34
2022-08-02T09:27:42.524Z,995.39
2022-08-02T09:28:42.517Z,995.36
2022-08-02T09:30:05.976Z,995.34
2022-08-02T09:30:44.511Z,995.31
2022-08-02T09:31:49.721Z,995.27
2022-08-02T09:32:44.479Z,995.28
2022-08-02T09:33:42.485Z,995.27
2022-08-02T09:34:42.471Z,995.29
2022-08-02T09:36:07.270Z,995.27
2022-08-02T09:36:43.480Z,995.34
2022-08-02T09:37:45.701Z,995.27
2022-08-02T09:38:43.455Z,995.32
2022-08-02T09:39:43.875Z,995.28
2022-08-02T09:40:43.447Z,995.25
2022-08-02T09:41:42.447Z,995.21
2022-08-02T09:42:42.435Z,995.22
2022-08-02T09:44:03.590Z,995.21
2022-08-02T09:44:43.407Z,995.21
2022-08-02T09:45:42.421Z,995.23
2022-08-02T09:46:42.412Z,995.23
2022-08-02T09:47:42.394Z,995.25
2022-08-02T09:48:42.395Z,995.29
2022-08-02T09:49:42.453Z,995.28
2022-08-02T09:50:43.372Z,995.27
2022-08-02T09:51:42.386Z,995.31
2022-08-02T09:52:43.491Z,995.30
2022-08-02T09:53:42.362Z,995.24
2022-08-02T09:54:42.363Z,995.25
2022-08-02T09:55:42.352Z,995.16
2022-08-02T09:56:42.367Z,995.16
2022-08-02T09:57:42.344Z,995.18
2022-08-02T09:58:42.338Z,995.22
2022-08-02T09:59:42.335Z,995.27
2022-08-02T10:00:52.584Z,995.32
2022-08-02T10:01:51.517Z,995.27
2022-08-02T10:02:43.319Z,995.27
2022-08-02T10:03:42.311Z,995.24
2022-08-02T10:04:52.306Z,995.27
2022-08-02T10:05:47.617Z,995.26
2022-08-02T10:06:43.308Z,995.28
2022-08-02T10:07:42.288Z,995.27
2022-08-02T10:08:42.287Z,995.28
2022-08-02T10:09:46.444Z,995.21
2022-08-02T10:10:44.280Z,995.14
2022-08-02T10:11:42.273Z,995.25
2022-08-02T10:12:42.271Z,995.21
2022-08-02T10:13:42.274Z,995.07
2022-08-02T10:14:42.251Z,995.22
2022-08-02T10:15:50.427Z,995.19
2022-08-02T10:16:43.274Z,995.26
2022-08-02T10:17:42.261Z,995.20
2022-08-02T10:18:42.236Z,995.10
2022-08-02T10:20:03.180Z,995.12
2022-08-02T10:20:43.227Z,995.07
2022-08-02T10:21:46.498Z,995.09
2022-08-02T10:22:43.215Z,995.05
2022-08-02T10:23:42.222Z,995.05
2022-08-02T10:24:47.786Z,995.01
2022-08-02T10:25:43.203Z,995.01
2022-08-02T10:26:42.242Z,995.06
2022-08-02T10:28:04.349Z,995.13
2022-08-02T10:28:44.186Z,995.10
2022-08-02T10:29:44.787Z,995.16
2022-08-02T10:30:43.178Z,995.11
2022-08-02T10:31:42.174Z,995.20
2022-08-02T10:32:42.178Z,995.11
2022-08-02T10:33:42.149Z,995.10
2022-08-02T10:34:42.152Z,995.17
2022-08-02T10:35:43.153Z,995.12
2022-08-02T10:36:42.134Z,995.08
2022-08-02T10:37:42.142Z,995.11
2022-08-02T10:38:42.130Z,995.06
2022-08-02T10:39:42.135Z,995.07
2022-08-02T10:40:42.119Z,995.00
2022-08-02T10:41:42.113Z,994.98
2022-08-02T10:42:42.117Z,994.94
2022-08-02T10:43:42.117Z,994.94
2022-08-02T10:44:42.093Z,994.92
2022-08-02T10:45:42.094Z,994.94
2022-08-02T10:46:42.070Z,994.92
2022-08-02T10:47:42.087Z,994.86
2022-08-02T10:48:43.077Z,994.86
2022-08-02T10:49:42.093Z,994.86
2022-08-02T10:50:42.067Z,994.83
2022-08-02T10:51:42.058Z,994.79
2022-08-02T10:52:42.058Z,994.90
2022-08-02T10:53:42.045Z,994.88
2022-08-02T10:54:42.048Z,994.91
2022-08-02T10:55:42.035Z,994.84
2022-08-02T10:56:42.037Z,994.82
2022-08-02T10:57:42.029Z,994.94
2022-08-02T10:58:42.017Z,994.88
2022-08-02T10:59:42.014Z,994.89
2022-08-02T11:00:42.088Z,994.85
2022-08-02T11:01:42.070Z,994.89
2022-08-02T11:02:42.016Z,994.79
2022-08-02T11:03:41.989Z,994.89
2022-08-02T11:04:41.978Z,994.88
2022-08-02T11:05:43.008Z,994.86
2022-08-02T11:06:41.977Z,994.78
2022-08-02T11:07:41.999Z,994.84
2022-08-02T11:08:42.965Z,994.80
2022-08-02T11:09:41.953Z,994.82
2022-08-02T11:10:41.961Z,994.74
2022-08-02T11:11:53.836Z,994.81
2022-08-02T11:12:42.957Z,994.82
2022-08-02T11:13:41.947Z,994.87
2022-08-02T11:14:41.929Z,994.83
2022-08-02T11:15:41.949Z,994.80
2022-08-02T11:16:41.921Z,994.82
2022-08-02T11:17:41.921Z,994.76
2022-08-02T11:18:41.930Z,994.83
2022-08-02T11:19:41.913Z,994.74
2022-08-02T11:20:41.904Z,994.68
2022-08-02T11:21:43.628Z,994.73
2022-08-02T11:22:41.892Z,994.82
2022-08-02T11:23:44.982Z,994.85
2022-08-02T11:24:41.897Z,994.80
2022-08-02T11:26:03.354Z,994.76
2022-08-02T11:26:43.881Z,994.81
2022-08-02T11:27:41.874Z,994.80
2022-08-02T11:28:41.869Z,994.77
2022-08-02T11:29:41.864Z,994.77
2022-08-02T11:30:41.861Z,994.78
2022-08-02T11:31:41.860Z,994.79
2022-08-02T11:32:41.849Z,994.88
2022-08-02T11:33:41.845Z,994.87
2022-08-02T11:34:41.853Z,994.88
2022-08-02T11:35:41.832Z,994.86
2022-08-02T11:36:41.840Z,994.85
2022-08-02T11:37:41.824Z,994.85
2022-08-02T11:38:41.805Z,994.85
2022-08-02T11:39:41.809Z,994.86
2022-08-02T11:40:41.800Z,994.86
2022-08-02T11:41:47.046Z,994.40
2022-08-02T11:42:42.801Z,994.36
2022-08-02T11:43:41.781Z,994.41
2022-08-02T11:44:41.777Z,994.32
2022-08-02T11:45:41.772Z,994.42
2022-08-02T11:46:41.771Z,994.49
2022-08-02T11:47:41.965Z,994.39
2022-08-02T11:48:41.763Z,994.44
2022-08-02T11:49:41.820Z,994.46
2022-08-02T11:50:41.750Z,994.39
2022-08-02T11:51:41.745Z,994.47
2022-08-02T11:52:41.751Z,994.48
2022-08-02T11:53:41.736Z,994.42
2022-08-02T11:54:41.731Z,994.40
2022-08-02T11:55:41.722Z,994.41
2022-08-02T11:56:41.721Z,994.41
2022-08-02T11:58:03.636Z,994.39
2022-08-02T11:58:42.719Z,994.41
2022-08-02T11:59:41.709Z,994.42
2022-08-02T12:00:41.710Z,994.40
2022-08-02T12:01:46.308Z,994.43
2022-08-02T12:02:41.688Z,994.39
2022-08-02T12:03:41.777Z,994.42
2022-08-02T12:04:41.674Z,994.46
2022-08-02T12:06:06.068Z,994.41
2022-08-02T12:06:43.666Z,994.48
2022-08-02T12:07:45.778Z,994.48
2022-08-02T12:08:41.649Z,994.45
2022-08-02T12:09:42.649Z,994.52
2022-08-02T12:10:41.655Z,994.45
2022-08-02T12:11:41.637Z,994.32
2022-08-02T12:12:41.629Z,994.40
2022-08-02T12:13:41.621Z,994.41
2022-08-02T12:14:41.625Z,994.42
2022-08-02T12:15:41.620Z,994.44
2022-08-02T12:16:41.617Z,994.42
2022-08-02T12:17:41.601Z,994.43
2022-08-02T12:18:42.599Z,994.41
2022-08-02T12:19:41.608Z,994.40
2022-08-02T12:20:41.585Z,994.38
2022-08-02T12:21:41.581Z,994.38
2022-08-02T12:22:42.049Z,994.43
2022-08-02T12:24:00.326Z,994.42
2022-08-02T12:24:42.580Z,994.39
2022-08-02T12:25:41.553Z,994.46
2022-08-02T12:26:41.549Z,994.48
2022-08-02T12:27:41.547Z,994.39
2022-08-02T12:28:41.533Z,994.40